Time;durP1;ratioP1;P1;durP2;ratioP2;P2;SDS_P1;SDS_P2;PMS_P1;PMS_P2;Temp;Humidity;BMP_temperature;BMP_pressure;BME280_temperature;BME280_humidity;BME280_pressure;Samples;Min_cycle;Max_cycle;Signal;HPM_P1;HPM_P2
2022/09/21 00:00:36;;;;;;;6.40;3.28;;;;;;;16.10;65.77;102782.31;6186057;23;20047;-37
2022/09/21 00:03:01;;;;;;;4.95;2.60;;;;;;;16.19;65.20;102782.50;6195235;23;20005;-37
2022/09/21 00:05:26;;;;;;;6.55;3.03;;;;;;;16.28;64.87;102784.44;6190783;23;20171;-37
2022/09/21 00:07:52;;;;;;;5.80;2.85;;;;;;;16.24;64.94;102781.72;6193317;23;20008;-46
2022/09/21 00:10:19;;;;;;;6.78;3.17;;;;;;;16.17;65.64;102781.56;6192097;23;20008;-36
2022/09/21 00:12:47;;;;;;;5.63;3.30;;;;;;;16.11;65.85;102774.44;6184939;23;20012;-36
2022/09/21 00:15:14;;;;;;;8.30;3.55;;;;;;;16.12;65.85;102772.69;6197834;23;20031;-36
2022/09/21 00:17:39;;;;;;;5.60;2.90;;;;;;;16.09;66.02;102772.66;6192738;23;20008;-36
2022/09/21 00:20:05;;;;;;;4.80;2.70;;;;;;;16.18;65.83;102778.09;6195217;23;20070;-36
2022/09/21 00:22:32;;;;;;;4.38;2.75;;;;;;;16.21;65.71;102775.53;6188975;23;20005;-36
2022/09/21 00:24:57;;;;;;;8.13;2.95;;;;;;;16.16;65.80;102777.19;6195607;23;20087;-36
2022/09/21 00:27:28;;;;;;;4.63;2.78;;;;;;;16.13;65.85;102771.84;6195991;23;20079;-37
2022/09/21 00:29:55;;;;;;;5.18;3.00;;;;;;;16.07;66.00;102772.59;6187151;23;20031;-37
2022/09/21 00:32:20;;;;;;;6.43;3.00;;;;;;;15.96;66.54;102770.59;6194780;23;20000;-38
2022/09/21 00:34:46;;;;;;;7.32;3.13;;;;;;;15.93;66.92;102773.16;6188837;23;20012;-37
2022/09/21 00:37:11;;;;;;;5.95;3.10;;;;;;;15.93;66.87;102770.53;6194647;23;20062;-36
2022/09/21 00:39:37;;;;;;;6.90;3.00;;;;;;;15.94;66.97;102769.69;6192445;23;20058;-36
2022/09/21 00:42:09;;;;;;;7.50;3.00;;;;;;;15.90;66.82;102773.09;6189461;23;20039;-37
2022/09/21 00:44:35;;;;;;;5.75;3.03;;;;;;;15.90;66.95;102763.47;6191025;23;20667;-36
2022/09/21 00:47:06;;;;;;;6.80;2.90;;;;;;;15.90;66.82;102770.47;6190237;23;20450;-37
2022/09/21 00:49:33;;;;;;;5.05;2.72;;;;;;;15.87;66.75;102775.66;6192365;23;20463;-38
2022/09/21 00:52:03;;;;;;;14.20;2.75;;;;;;;15.83;66.94;102769.44;6191377;23;20004;-38
2022/09/21 00:54:37;;;;;;;4.35;2.70;;;;;;;15.85;66.67;102769.50;6187095;23;20066;-38
2022/09/21 00:57:02;;;;;;;6.05;2.60;;;;;;;15.80;66.50;102770.25;6195663;23;20015;-38
2022/09/21 00:59:31;;;;;;;5.78;2.70;;;;;;;15.70;66.92;102768.28;6188634;23;20012;-38
2022/09/21 01:01:57;;;;;;;4.10;2.70;;;;;;;15.62;66.95;102767.22;6194374;23;20009;-39
2022/09/21 01:04:23;;;;;;;6.45;2.70;;;;;;;15.57;66.68;102779.38;6193575;23;20014;-38
2022/09/21 01:06:49;;;;;;;4.50;2.60;;;;;;;15.48;66.69;102776.53;6187616;23;20448;-37
2022/09/21 01:09:17;;;;;;;6.55;2.67;;;;;;;15.37;66.83;102768.34;6192391;23;20008;-38
2022/09/21 01:12:03;;;;;;;5.07;2.90;;;;;;;15.26;67.05;102768.94;6188769;23;20012;-36
2022/09/21 01:14:44;;;;;;;5.72;2.80;;;;;;;15.18;66.92;102768.78;6189562;23;20044;-36
2022/09/21 01:17:37;;;;;;;5.97;2.47;;;;;;;15.08;67.21;102766.75;6192571;23;20008;-36
2022/09/21 01:20:16;;;;;;;5.22;2.80;;;;;;;15.01;67.32;102767.47;6193442;23;20036;-37
2022/09/21 01:23:22;;;;;;;5.20;2.70;;;;;;;14.98;67.17;102770.91;6183549;23;20016;-37
2022/09/21 01:26:03;;;;;;;6.15;2.70;;;;;;;14.99;67.18;102771.81;6110613;23;20016;-41
2022/09/21 01:28:59;;;;;;;6.20;2.72;;;;;;;14.93;67.14;102764.66;6189667;23;20352;-38
2022/09/21 01:31:31;;;;;;;6.45;2.70;;;;;;;14.92;67.01;102769.88;6191333;23;20048;-38
2022/09/21 01:34:00;;;;;;;4.47;2.75;;;;;;;14.88;67.48;102765.41;6191473;23;20492;-40
2022/09/21 01:36:29;;;;;;;4.53;2.72;;;;;;;14.86;67.41;102767.09;6190563;23;20008;-40
2022/09/21 01:39:02;;;;;;;5.88;3.00;;;;;;;14.74;67.62;102770.28;6189439;23;20020;-38
2022/09/21 01:41:30;;;;;;;5.93;2.90;;;;;;;14.72;67.66;102769.34;6191604;23;20009;-37
2022/09/21 01:44:07;;;;;;;5.82;3.05;;;;;;;14.75;67.72;102763.28;6191879;23;20009;-37
2022/09/21 01:46:34;;;;;;;7.50;3.10;;;;;;;14.69;67.86;102756.16;6185878;23;20008;-36
2022/09/21 01:49:07;;;;;;;7.90;3.33;;;;;;;14.58;68.60;102755.84;6194245;23;20005;-39
2022/09/21 01:51:35;;;;;;;6.60;2.78;;;;;;;14.66;68.13;102758.69;6190705;23;20735;-39
2022/09/21 01:54:09;;;;;;;8.43;2.85;;;;;;;14.70;68.25;102762.28;6188857;23;20012;-38
2022/09/21 01:56:48;;;;;;;5.20;2.50;;;;;;;14.74;68.62;102770.28;6190666;23;20004;-38
2022/09/21 01:59:39;;;;;;;4.57;2.28;;;;;;;14.81;68.24;102772.22;6187446;23;20013;-39
2022/09/21 02:02:15;;;;;;;8.70;2.40;;;;;;;14.67;68.95;102768.34;6191114;23;20011;-37
2022/09/21 02:04:41;;;;;;;7.22;2.30;;;;;;;14.75;68.69;102769.44;6186349;23;20009;-37
2022/09/21 02:07:08;;;;;;;4.32;1.85;;;;;;;14.84;68.50;102763.50;6193880;23;20036;-37
2022/09/21 02:09:36;;;;;;;4.95;2.20;;;;;;;14.86;68.48;102759.19;6190725;23;20004;-38
2022/09/21 02:12:01;;;;;;;7.50;2.20;;;;;;;14.87;68.71;102766.25;6188376;23;20009;-38
2022/09/21 02:14:28;;;;;;;6.35;2.40;;;;;;;14.61;69.79;102766.44;6194769;23;20023;-37
2022/09/21 02:17:23;;;;;;;6.53;2.55;;;;;;;14.54;70.50;102769.75;6183746;23;20037;-39
2022/09/21 02:20:09;;;;;;;7.13;2.47;;;;;;;14.81;69.44;102772.22;6189078;23;20039;-36
2022/09/21 02:22:53;;;;;;;6.85;2.30;;;;;;;15.01;68.93;102770.97;6184636;23;20008;-37
2022/09/21 02:25:49;;;;;;;4.70;2.15;;;;;;;15.02;68.84;102766.59;6190673;23;20031;-36
2022/09/21 02:28:14;;;;;;;3.53;1.95;;;;;;;15.07;68.53;102767.59;6178967;23;20029;-41
2022/09/21 02:30:47;;;;;;;7.55;2.25;;;;;;;15.05;68.68;102771.06;6183563;23;20066;-39
2022/09/21 02:33:28;;;;;;;4.35;2.30;;;;;;;15.00;68.47;102778.84;6192838;23;20005;-39
2022/09/21 02:36:07;;;;;;;4.57;2.10;;;;;;;14.83;68.90;102785.38;6190793;23;20586;-38
2022/09/21 02:38:32;;;;;;;5.88;2.28;;;;;;;14.86;68.73;102777.59;6191807;23;20021;-38
2022/09/21 02:41:33;;;;;;;6.03;2.17;;;;;;;14.87;68.08;102777.63;6192248;23;20089;-39
2022/09/21 02:44:22;;;;;;;7.93;2.22;;;;;;;14.78;67.94;102774.75;6195382;23;20012;-37
2022/09/21 02:47:11;;;;;;;4.72;1.90;;;;;;;14.72;67.90;102773.69;6188821;23;20005;-37
2022/09/21 02:49:43;;;;;;;5.47;1.92;;;;;;;14.67;68.06;102776.22;6193443;23;20008;-39
2022/09/21 02:52:13;;;;;;;4.75;1.92;;;;;;;14.63;67.82;102763.84;6192766;23;20039;-38
2022/09/21 02:54:42;;;;;;;5.05;1.90;;;;;;;14.62;67.72;102764.69;6187824;23;20043;-38
2022/09/21 02:57:10;;;;;;;4.10;2.00;;;;;;;14.63;67.64;102765.59;6192234;23;20011;-39
2022/09/21 02:59:35;;;;;;;4.32;2.05;;;;;;;14.51;67.94;102768.78;6192144;23;20774;-39
2022/09/21 03:02:01;;;;;;;6.13;2.28;;;;;;;14.44;68.01;102766.81;6192622;23;20015;-38
2022/09/21 03:04:27;;;;;;;5.15;2.50;;;;;;;14.39;67.72;102768.44;6198176;23;20004;-39
2022/09/21 03:06:52;;;;;;;4.43;2.00;;;;;;;14.35;68.00;102771.78;6189467;23;20036;-38
2022/09/21 03:09:20;;;;;;;5.53;2.13;;;;;;;14.31;68.13;102777.78;6195631;23;20389;-39
2022/09/21 03:11:45;;;;;;;4.50;1.95;;;;;;;14.30;68.04;102773.38;6191599;23;20032;-36
2022/09/21 03:14:10;;;;;;;4.28;2.20;;;;;;;14.29;68.21;102775.13;6196929;23;20121;-39
2022/09/21 03:16:37;;;;;;;4.32;2.15;;;;;;;14.25;68.17;102781.13;6188237;23;19997;-39
2022/09/21 03:19:04;;;;;;;4.70;2.00;;;;;;;14.25;68.05;102783.75;6192723;23;20016;-38
2022/09/21 03:21:29;;;;;;;6.88;2.17;;;;;;;14.20;68.15;102787.97;6195588;23;20012;-38
2022/09/21 03:23:54;;;;;;;6.53;2.15;;;;;;;14.18;68.42;102784.41;6190602;23;20317;-38
2022/09/21 03:26:21;;;;;;;4.55;2.30;;;;;;;14.12;68.44;102781.63;6192506;23;20015;-37
2022/09/21 03:28:50;;;;;;;5.88;2.40;;;;;;;14.09;68.57;102782.41;6185447;23;20099;-37
2022/09/21 03:31:16;;;;;;;4.75;2.30;;;;;;;14.11;68.28;102788.59;6193528;23;20305;-39
2022/09/21 03:33:41;;;;;;;5.90;2.60;;;;;;;14.11;68.43;102785.06;6195378;23;20009;-38
2022/09/21 03:36:07;;;;;;;3.92;2.33;;;;;;;14.05;68.62;102783.16;6192756;23;20066;-37
2022/09/21 03:38:33;;;;;;;5.90;2.50;;;;;;;14.02;68.73;102785.72;6190516;23;20084;-37
2022/09/21 03:40:59;;;;;;;4.20;2.28;;;;;;;13.99;68.70;102787.34;6188321;23;20502;-37
2022/09/21 03:43:25;;;;;;;4.75;2.40;;;;;;;13.93;68.60;102782.81;6191859;23;20009;-37
2022/09/21 03:45:50;;;;;;;3.70;2.30;;;;;;;13.93;68.60;102787.16;6194402;23;20766;-37
2022/09/21 03:48:16;;;;;;;4.32;2.60;;;;;;;13.92;68.31;102791.50;6191505;23;20012;-37
2022/09/21 03:50:42;;;;;;;4.68;2.47;;;;;;;13.86;68.60;102786.06;6191813;23;20415;-37
2022/09/21 03:53:09;;;;;;;5.68;2.60;;;;;;;13.78;68.82;102791.09;6191216;23;20009;-37
2022/09/21 03:55:34;;;;;;;5.75;2.30;;;;;;;13.78;68.49;102791.09;6191215;23;20004;-40
2022/09/21 03:57:59;;;;;;;6.00;2.60;;;;;;;13.71;68.55;102794.38;6194605;23;20751;-37
2022/09/21 04:00:26;;;;;;;6.25;2.50;;;;;;;13.70;68.54;102787.34;6188698;23;20012;-38
2022/09/21 04:02:52;;;;;;;4.28;2.30;;;;;;;13.68;68.72;102789.03;6187387;23;20016;-37
2022/09/21 04:05:17;;;;;;;4.65;2.47;;;;;;;13.65;68.54;102786.34;6191180;23;20013;-39
2022/09/21 04:07:46;;;;;;;5.15;2.65;;;;;;;13.63;68.80;102790.63;6195045;23;20011;-36
2022/09/21 04:10:18;;;;;;;5.50;2.40;;;;;;;13.64;68.93;102784.53;6191159;23;20637;-39
2022/09/21 04:12:44;;;;;;;7.65;2.70;;;;;;;13.65;69.13;102786.34;6184830;23;20070;-39
2022/09/21 04:15:17;;;;;;;4.78;2.50;;;;;;;13.69;69.31;102787.31;6192825;23;20000;-38
2022/09/21 04:17:43;;;;;;;8.02;2.40;;;;;;;13.73;69.51;102786.53;6190544;23;20021;-39
2022/09/21 04:20:08;;;;;;;6.03;2.42;;;;;;;13.79;69.46;102782.38;6194221;23;20450;-40
2022/09/21 04:22:35;;;;;;;6.70;2.65;;;;;;;13.82;69.71;102785.09;6186617;23;20063;-38
2022/09/21 04:25:01;;;;;;;10.18;3.35;;;;;;;13.88;69.82;102786.13;6192211;23;20074;-37
2022/09/21 04:27:26;;;;;;;4.03;2.55;;;;;;;13.92;69.80;102786.25;6191663;23;20016;-37
2022/09/21 04:29:52;;;;;;;4.10;2.15;;;;;;;14.01;69.88;102780.41;6186865;23;20139;-37
2022/09/21 04:32:17;;;;;;;8.48;2.70;;;;;;;14.09;69.94;102784.13;6191648;23;20112;-39
2022/09/21 04:34:42;;;;;;;5.35;2.50;;;;;;;14.09;69.92;102785.03;6189022;23;20052;-37
2022/09/21 04:37:10;;;;;;;5.80;2.50;;;;;;;14.10;69.99;102786.81;6196232;23;20016;-38
2022/09/21 04:39:36;;;;;;;5.95;2.30;;;;;;;14.14;69.73;102783.44;6191726;23;20005;-37
2022/09/21 04:42:02;;;;;;;5.13;2.38;;;;;;;14.22;69.63;102781.91;6190469;23;20017;-36
2022/09/21 04:44:29;;;;;;;6.18;2.75;;;;;;;14.14;69.73;102786.06;6189643;23;20008;-38
2022/09/21 04:46:54;;;;;;;5.32;2.50;;;;;;;14.13;69.78;102786.91;6187803;23;20016;-37
2022/09/21 04:49:19;;;;;;;4.18;2.50;;;;;;;14.12;69.97;102793.00;6191699;23;20011;-37
2022/09/21 04:51:45;;;;;;;6.90;2.65;;;;;;;14.12;69.72;102790.38;6193379;23;20009;-37
2022/09/21 04:54:10;;;;;;;4.57;2.42;;;;;;;14.14;69.70;102790.44;6188580;23;20009;-38
2022/09/21 04:56:35;;;;;;;5.43;2.45;;;;;;;14.15;69.71;102789.56;6189568;23;20107;-46
2022/09/21 04:59:01;;;;;;;3.75;2.47;;;;;;;14.15;69.63;102779.97;6188006;23;20340;-37
2022/09/21 05:01:26;;;;;;;5.43;2.80;;;;;;;14.12;69.82;102785.13;6191932;23;20015;-37
2022/09/21 05:03:52;;;;;;;5.80;2.28;;;;;;;14.15;69.64;102789.56;6195569;23;20005;-38
2022/09/21 05:06:17;;;;;;;4.50;2.45;;;;;;;14.12;69.58;102787.75;6191784;23;20009;-38
2022/09/21 05:11:26;;;;;;;4.40;2.42;;;;;;;14.06;69.44;102782.31;6186291;23;20067;-38
2022/09/21 05:13:52;;;;;;;5.32;2.40;;;;;;;14.05;69.20;102782.28;6192130;23;20420;-37
2022/09/21 05:16:18;;;;;;;4.45;2.40;;;;;;;14.03;69.07;102782.22;6193097;23;20028;-38
2022/09/21 05:18:44;;;;;;;6.03;2.60;;;;;;;13.98;69.21;102790.81;6186463;23;20024;-38
2022/09/21 05:21:11;;;;;;;3.50;2.10;;;;;;;13.97;69.12;102789.00;6191814;23;20015;-36
2022/09/21 05:23:37;;;;;;;3.22;2.20;;;;;;;13.98;69.02;102790.81;6192180;23;20017;-37
2022/09/21 05:26:02;;;;;;;6.05;2.60;;;;;;;13.93;69.06;102787.16;6193032;23;20013;-36
2022/09/21 05:28:29;;;;;;;4.10;2.30;;;;;;;13.92;69.15;102788.88;6192980;23;20012;-36
2022/09/21 05:31:16;;;;;;;5.68;2.40;;;;;;;13.90;69.03;102795.84;6187614;23;20008;-36
2022/09/21 05:33:55;;;;;;;6.30;2.63;;;;;;;13.90;69.24;102790.59;6192075;23;20016;-40
2022/09/21 05:36:45;;;;;;;7.32;2.60;;;;;;;13.87;69.46;102793.09;6187197;23;20482;-38
2022/09/21 05:39:11;;;;;;;6.32;2.60;;;;;;;13.91;69.58;102796.69;6189305;23;20019;-37
2022/09/21 05:41:37;;;;;;;6.10;2.83;;;;;;;13.92;69.77;102791.50;6191192;23;20321;-38
2022/09/21 05:44:02;;;;;;;4.60;2.70;;;;;;;13.97;69.77;102794.25;6193595;23;20352;-38
2022/09/21 05:46:41;;;;;;;6.10;2.83;;;;;;;13.99;69.96;102798.72;6194107;23;20061;-36
2022/09/21 05:49:21;;;;;;;5.07;2.50;;;;;;;14.04;69.82;102798.84;6192918;23;20015;-36
2022/09/21 05:52:00;;;;;;;5.53;2.55;;;;;;;14.13;69.88;102807.00;6193335;23;20011;-37
2022/09/21 05:54:43;;;;;;;5.78;2.60;;;;;;;14.19;70.00;102800.22;6187558;23;20012;-38
2022/09/21 05:57:18;;;;;;;5.03;3.03;;;;;;;14.22;69.89;102802.91;6194518;23;20080;-38
2022/09/21 06:00:10;;;;;;;4.88;2.60;;;;;;;14.30;69.90;102799.63;6186846;22;20012;-39
2022/09/21 06:02:48;;;;;;;7.75;2.80;;;;;;;14.41;70.02;102804.34;6189897;23;20013;-38
2022/09/21 06:05:15;;;;;;;5.50;2.83;;;;;;;14.38;69.90;102811.25;6190891;23;20005;-37
2022/09/21 06:07:40;;;;;;;7.50;2.90;;;;;;;14.45;69.77;102805.34;6191846;23;20043;-40
2022/09/21 06:10:07;;;;;;;5.68;2.70;;;;;;;14.48;69.71;102813.28;6189754;23;20120;-37
2022/09/21 06:12:33;;;;;;;5.72;2.72;;;;;;;14.52;69.61;102815.16;6182354;22;20044;-37
2022/09/21 06:14:58;;;;;;;5.43;2.67;;;;;;;14.57;69.57;102811.84;6193054;23;20435;-36
2022/09/21 06:17:26;;;;;;;5.53;2.90;;;;;;;14.70;69.50;102807.78;6187855;22;20532;-39
2022/09/21 06:19:52;;;;;;;8.25;2.80;;;;;;;14.77;69.31;102816.72;6192984;23;20020;-37
2022/09/21 06:22:17;;;;;;;4.70;2.70;;;;;;;14.90;68.78;102808.31;6193736;23;20016;-37
2022/09/21 06:24:43;;;;;;;6.20;3.20;;;;;;;15.06;68.13;102804.38;6186510;23;20008;-37
2022/09/21 06:27:08;;;;;;;7.20;2.85;;;;;;;15.26;67.57;102805.75;6195927;23;20011;-36
2022/09/21 06:29:33;;;;;;;5.88;2.83;;;;;;;15.41;66.59;102811.38;6190058;23;20012;-38
2022/09/21 06:32:01;;;;;;;5.78;2.92;;;;;;;15.50;65.90;102810.69;6193058;23;20689;-36
2022/09/21 06:34:26;;;;;;;5.25;2.97;;;;;;;15.70;65.72;102804.22;6194594;23;20568;-39
2022/09/21 06:36:52;;;;;;;5.50;2.83;;;;;;;15.92;65.37;102802.97;6187096;23;20012;-36
2022/09/21 06:39:17;;;;;;;7.63;3.10;;;;;;;15.94;64.91;102804.75;6191389;23;20004;-38
2022/09/21 06:41:43;;;;;;;6.35;3.15;;;;;;;16.00;64.31;102806.63;6189045;23;20024;-37
2022/09/21 06:44:08;;;;;;;7.88;3.15;;;;;;;15.99;63.98;102811.00;6192449;23;20005;-37
2022/09/21 06:46:33;;;;;;;8.35;3.45;;;;;;;15.88;64.24;102814.25;6186107;23;20490;-38
2022/09/21 06:48:58;;;;;;;6.50;3.20;;;;;;;15.83;64.29;102811.53;6192716;23;20036;-37
2022/09/21 06:51:24;;;;;;;6.97;3.10;;;;;;;15.91;64.59;102811.72;6193974;23;20012;-37
2022/09/21 06:53:54;;;;;;;6.90;3.13;;;;;;;16.00;64.49;102809.25;6188478;23;20036;-38
2022/09/21 06:56:20;;;;;;;7.72;3.50;;;;;;;15.93;64.59;102812.63;6192227;23;20005;-39
2022/09/21 06:58:46;;;;;;;9.95;4.00;;;;;;;15.92;64.65;102810.88;6185144;23;20010;-39
2022/09/21 07:01:13;;;;;;;8.75;3.80;;;;;;;15.92;64.74;102809.09;6192530;23;20008;-37
2022/09/21 07:03:39;;;;;;;9.55;3.65;;;;;;;16.16;64.23;102822.78;6192432;23;20011;-38
2022/09/21 07:06:06;;;;;;;8.75;4.00;;;;;;;16.61;63.60;102817.59;6190861;23;20147;-37
2022/09/21 07:08:31;;;;;;;9.63;4.32;;;;;;;16.96;61.72;102818.25;6190557;23;20501;-37
2022/09/21 07:10:58;;;;;;;9.45;4.20;;;;;;;17.65;60.17;102822.97;6189678;23;20036;-38
2022/09/21 07:13:24;;;;;;;9.52;4.00;;;;;;;18.02;58.23;102820.84;6191046;23;20012;-37
2022/09/21 07:15:50;;;;;;;11.23;4.40;;;;;;;18.69;55.22;102808.50;6193073;23;20139;-37
2022/09/21 07:18:16;;;;;;;11.43;4.30;;;;;;;19.82;52.64;102806.81;6190473;23;20451;-36
2022/09/21 07:20:41;;;;;;;7.85;4.10;;;;;;;20.70;49.32;102805.44;6189399;23;20019;-36
2022/09/21 07:23:18;;;;;;;7.45;3.72;;;;;;;21.32;48.69;102811.75;6191774;23;20071;-38
2022/09/21 07:25:49;;;;;;;13.65;4.15;;;;;;;20.79;47.15;102810.78;6192444;23;20420;-37
2022/09/21 07:28:15;;;;;;;8.68;4.18;;;;;;;19.89;50.43;102807.75;6193932;23;20546;-38
2022/09/21 07:30:40;;;;;;;8.57;4.35;;;;;;;19.07;52.13;102814.16;6184639;23;20009;-38
2022/09/21 07:33:06;;;;;;;9.57;4.22;;;;;;;18.70;53.01;102811.16;6192270;23;20335;-38
2022/09/21 07:35:32;;;;;;;8.43;4.20;;;;;;;18.53;54.28;102818.88;6186875;23;20023;-38
2022/09/21 07:37:59;;;;;;;9.75;4.32;;;;;;;18.65;53.53;102812.88;6192373;23;20831;-37
2022/09/21 07:40:25;;;;;;;9.02;3.88;;;;;;;18.55;53.22;102816.25;6192856;23;20313;-39
2022/09/21 07:42:51;;;;;;;7.97;3.88;;;;;;;18.48;52.83;102806.50;6187168;23;20020;-38
2022/09/21 07:45:17;;;;;;;9.57;4.22;;;;;;;18.48;53.17;102806.50;6183139;23;20005;-39
2022/09/21 07:47:42;;;;;;;9.65;3.67;;;;;;;18.41;53.85;102813.47;6180373;23;20045;-46
2022/09/21 07:50:08;;;;;;;7.32;3.53;;;;;;;18.34;53.87;102816.88;6195167;23;20512;-38
2022/09/21 07:52:33;;;;;;;12.00;4.10;;;;;;;18.37;53.62;102816.91;6184046;23;20019;-37
2022/09/21 07:54:59;;;;;;;9.18;3.55;;;;;;;18.70;53.53;102811.16;6194025;23;20088;-37
2022/09/21 08:00:08;;;;;;;12.23;3.90;;;;;;;18.83;52.48;102813.06;6187894;23;20051;-37
2022/09/21 08:02:34;;;;;;;6.95;3.00;;;;;;;19.01;51.67;102817.66;6189588;23;20009;-37
2022/09/21 08:04:59;;;;;;;9.90;3.22;;;;;;;18.93;50.38;102814.03;6189800;23;20107;-37
2022/09/21 08:07:27;;;;;;;8.63;2.80;;;;;;;18.91;50.39;102815.75;6190317;23;20080;-38
2022/09/21 08:09:52;;;;;;;8.20;3.17;;;;;;;19.13;49.99;102812.47;6192758;23;20009;-38
2022/09/21 08:12:19;;;;;;;6.88;2.88;;;;;;;18.93;49.89;102820.22;6190676;23;20024;-38
2022/09/21 08:14:44;;;;;;;6.65;2.30;;;;;;;19.04;49.80;102809.72;6188610;23;20157;-38
2022/09/21 08:17:10;;;;;;;5.25;2.40;;;;;;;18.81;49.71;102819.19;6183771;23;20507;-38
2022/09/21 08:19:35;;;;;;;4.75;2.20;;;;;;;18.86;50.16;102817.47;6191945;23;20008;-39
2022/09/21 08:22:01;;;;;;;9.27;2.40;;;;;;;18.65;50.41;102826.09;6192737;23;20009;-38
2022/09/21 08:24:26;;;;;;;6.43;2.40;;;;;;;18.77;50.93;102822.69;6188567;23;20083;-37
2022/09/21 08:26:52;;;;;;;8.27;3.13;;;;;;;18.77;50.39;102836.78;6189391;23;20019;-39
2022/09/21 08:29:17;;;;;;;10.27;2.97;;;;;;;18.39;52.69;102831.03;6191429;23;20078;-39
2022/09/21 08:31:43;;;;;;;9.32;2.67;;;;;;;18.72;52.00;102837.63;6191405;23;20004;-38
2022/09/21 08:34:08;;;;;;;7.68;2.55;;;;;;;18.50;51.62;102829.41;6193384;23;20015;-36
2022/09/21 08:36:34;;;;;;;12.75;2.65;;;;;;;18.39;52.12;102832.78;6185717;23;20455;-36
2022/09/21 08:38:59;;;;;;;8.95;2.50;;;;;;;18.17;52.47;102831.63;6192089;23;20756;-37
2022/09/21 08:42:03;;;;;;;7.88;2.40;;;;;;;18.40;51.74;102834.56;6189515;23;20510;-37
2022/09/21 08:44:46;;;;;;;10.10;2.60;;;;;;;17.70;52.60;102830.94;6187762;23;20659;-39
2022/09/21 08:47:22;;;;;;;8.63;2.17;;;;;;;18.18;52.19;102838.66;6189375;23;20016;-38
2022/09/21 08:49:54;;;;;;;8.35;2.08;;;;;;;18.31;51.16;102830.03;6193334;23;20039;-37
2022/09/21 08:52:23;;;;;;;7.82;2.25;;;;;;;18.41;51.16;102834.59;6194116;23;20384;-38
2022/09/21 08:55:08;;;;;;;5.18;2.28;;;;;;;17.92;51.97;102832.16;6186953;23;20032;-38
2022/09/21 08:57:33;;;;;;;6.45;1.92;;;;;;;18.48;50.63;102831.13;6194339;23;20079;-38
2022/09/21 09:00:01;;;;;;;6.93;2.42;;;;;;;18.55;51.08;102838.28;6189397;23;20657;-37
2022/09/21 09:03:01;;;;;;;9.43;2.30;;;;;;;18.78;50.91;102841.22;6195013;23;20538;-37
2022/09/21 09:05:41;;;;;;;7.15;1.98;;;;;;;18.56;50.69;102847.09;6189399;23;20009;-37
2022/09/21 09:08:34;;;;;;;8.25;1.90;;;;;;;18.77;48.99;102830.63;6192958;23;20463;-38
2022/09/21 09:11:15;;;;;;;4.30;1.40;;;;;;;18.72;48.49;102840.25;6187175;23;20023;-37
2022/09/21 09:13:56;;;;;;;4.25;1.20;;;;;;;18.89;48.63;102838.66;6183020;23;20651;-38
2022/09/21 09:16:41;;;;;;;5.10;1.20;;;;;;;19.27;47.92;102836.41;6192071;23;20009;-37
2022/09/21 09:19:30;;;;;;;4.05;1.25;;;;;;;19.43;46.08;102838.28;6191247;23;20139;-37
2022/09/21 09:21:56;;;;;;;7.57;1.55;;;;;;;19.44;45.58;102842.72;6193264;23;20012;-36
2022/09/21 09:24:47;;;;;;;7.57;1.30;;;;;;;19.66;44.93;102836.72;6190821;23;20013;-37
2022/09/21 09:27:23;;;;;;;4.95;1.25;;;;;;;19.40;46.79;102835.59;6185203;23;20035;-36
2022/09/21 09:30:01;;;;;;;8.25;1.20;;;;;;;19.70;46.16;102841.16;6188358;23;20008;-36
2022/09/21 09:32:39;;;;;;;1.85;0.88;;;;;;;19.59;41.70;102842.84;6192817;23;20078;-38
2022/09/21 09:35:39;;;;;;;3.20;0.93;;;;;;;19.90;40.56;102836.00;6190891;23;20757;-38
2022/09/21 09:38:16;;;;;;;6.68;1.13;;;;;;;19.62;43.16;102840.25;6189797;23;20012;-37
2022/09/21 09:41:09;;;;;;;2.70;0.93;;;;;;;19.42;42.51;102840.03;6184441;23;20016;-37
2022/09/21 09:44:00;;;;;;;5.10;1.00;;;;;;;19.84;42.28;102828.91;6191876;23;20332;-38
2022/09/21 09:46:54;;;;;;;4.13;1.05;;;;;;;19.85;43.38;102838.63;6191588;23;20131;-39
2022/09/21 09:49:38;;;;;;;;;;;;;;;19.54;42.38;102834.00;6191502;23;20023;-36
2022/09/21 09:52:05;;;;;;;3.95;1.10;;;;;;;19.77;43.80;102834.13;6192717;23;19912;-38
2022/09/21 09:54:34;;;;;;;4.97;1.30;;;;;;;19.95;41.40;102836.91;6183256;23;20039;-38
2022/09/21 09:57:03;;;;;;;3.47;1.10;;;;;;;19.73;43.59;102841.19;6191183;23;20009;-38
2022/09/21 09:59:48;;;;;;;3.22;0.90;;;;;;;19.98;42.10;102836.94;6188329;23;20514;-39
2022/09/21 10:02:17;;;;;;;6.25;1.20;;;;;;;20.07;42.86;102838.72;6190844;23;20087;-41
2022/09/21 10:05:00;;;;;;;5.43;1.20;;;;;;;20.10;42.50;102836.13;6187995;23;20005;-38
2022/09/21 10:07:44;;;;;;;4.88;1.00;;;;;;;20.22;42.66;102838.81;6192459;23;20013;-38
2022/09/21 10:10:25;;;;;;;;;;;;;;;19.98;44.06;102838.69;6189446;23;20084;-38
2022/09/21 10:12:52;;;;;;;4.10;0.93;;;;;;;20.15;43.84;102834.38;6187669;23;19908;-37
2022/09/21 10:15:19;;;;;;;4.85;1.10;;;;;;;20.23;41.78;102830.00;6195156;23;20007;-38
2022/09/21 10:17:46;;;;;;;4.53;1.10;;;;;;;19.62;42.58;102823.47;6190436;23;20012;-37
2022/09/21 10:20:17;;;;;;;3.03;1.10;;;;;;;20.06;41.75;102829.94;6192328;23;20089;-40
2022/09/21 10:22:47;;;;;;;4.07;1.00;;;;;;;20.19;41.24;102828.19;6185391;23;20033;-39
2022/09/21 10:25:17;;;;;;;6.25;1.10;;;;;;;20.22;42.70;102830.88;6191772;23;20013;-39
2022/09/21 10:27:47;;;;;;;4.57;1.23;;;;;;;20.20;43.00;102827.31;6191492;23;20051;-38
2022/09/21 10:30:34;;;;;;;6.15;1.27;;;;;;;20.01;43.87;102823.69;6188418;23;20023;-38
2022/09/21 10:33:01;;;;;;;4.85;1.25;;;;;;;19.88;42.05;102823.66;6192482;23;20051;-39
2022/09/21 10:35:26;;;;;;;3.42;1.10;;;;;;;20.02;42.05;102830.78;6188781;23;20016;-38
2022/09/21 10:38:18;;;;;;;4.68;1.10;;;;;;;20.25;41.88;102822.94;6190703;23;20012;-37
2022/09/21 10:40:46;;;;;;;5.45;1.17;;;;;;;20.43;41.51;102822.19;6183471;23;20738;-36
2022/09/21 10:43:43;;;;;;;2.72;1.02;;;;;;;20.46;42.46;102815.13;6190412;23;20004;-38
2022/09/21 10:46:09;;;;;;;4.25;1.15;;;;;;;20.02;40.50;102819.28;6125911;23;20538;-41
2022/09/21 10:48:35;;;;;;;4.28;0.90;;;;;;;20.35;39.58;102819.50;6184576;23;20039;-37
2022/09/21 10:51:02;;;;;;;3.33;1.00;;;;;;;20.18;39.87;102822.03;6190737;23;20011;-38
2022/09/21 10:53:30;;;;;;;3.15;1.08;;;;;;;20.36;39.01;102815.97;6187117;23;20012;-37
2022/09/21 10:56:12;;;;;;;3.95;0.90;;;;;;;20.04;36.67;102813.13;6190672;23;20024;-38
2022/09/21 10:58:38;;;;;;;3.72;0.80;;;;;;;20.00;37.62;102811.38;6188926;23;20008;-36
2022/09/21 11:01:21;;;;;;;3.63;0.85;;;;;;;20.02;39.85;102820.19;6187027;23;20013;-37
2022/09/21 11:04:07;;;;;;;3.10;0.82;;;;;;;20.48;38.28;102807.19;6189438;23;20015;-41
2022/09/21 11:06:46;;;;;;;3.35;1.00;;;;;;;20.23;39.29;102812.34;6183677;23;20443;-37
2022/09/21 11:09:47;;;;;;;4.95;0.80;;;;;;;20.03;39.87;102811.38;6192723;23;20012;-39
2022/09/21 11:12:53;;;;;;;2.75;0.82;;;;;;;19.93;40.20;102812.22;6120465;23;20040;-38
2022/09/21 11:15:36;;;;;;;5.70;1.20;;;;;;;19.83;39.89;102813.00;6141301;23;20466;-38
2022/09/21 11:18:23;;;;;;;3.05;0.90;;;;;;;19.81;37.59;102814.78;6186436;23;20024;-37
2022/09/21 11:21:00;;;;;;;3.47;0.82;;;;;;;19.96;37.18;102812.19;6187490;23;20069;-36
2022/09/21 11:23:52;;;;;;;4.15;0.80;;;;;;;19.92;37.60;102807.78;6189059;23;20009;-36
2022/09/21 11:26:34;;;;;;;2.42;0.80;;;;;;;20.36;38.13;102802.72;6186429;23;20009;-38
2022/09/21 11:29:11;;;;;;;2.35;0.70;;;;;;;20.60;38.84;102809.88;6190518;23;20021;-38
2022/09/21 11:31:56;;;;;;;3.13;0.90;;;;;;;20.53;38.88;102806.31;6192423;23;20305;-36
2022/09/21 11:34:34;;;;;;;3.78;0.90;;;;;;;20.32;39.59;102798.28;6194739;23;20490;-38
2022/09/21 11:37:26;;;;;;;3.35;1.00;;;;;;;20.41;40.53;102800.97;6194236;23;20132;-46
2022/09/21 11:40:23;;;;;;;1.90;0.90;;;;;;;19.83;41.79;102798.00;6193204;23;20023;-35
2022/09/21 11:43:06;;;;;;;2.72;1.00;;;;;;;20.42;41.97;102794.78;6185850;23;20027;-38
2022/09/21 11:45:56;;;;;;;2.53;0.90;;;;;;;20.56;41.75;102790.41;6191044;23;20017;-37
2022/09/21 11:48:56;;;;;;;2.80;1.00;;;;;;;20.73;39.06;102789.56;6191459;23;20103;-38
2022/09/21 11:51:27;;;;;;;2.30;0.90;;;;;;;20.81;37.67;102785.16;6171495;23;20777;-39